createdAt,value
2023-07-19T00:01:39.856Z,2.50
2023-07-19T00:16:39.837Z,2.70
2023-07-19T00:21:39.840Z,2.70
2023-07-19T00:26:40.626Z,2.60
2023-07-19T00:31:39.809Z,2.60
2023-07-19T00:41:39.874Z,2.60
2023-07-19T00:46:40.056Z,2.40
2023-07-19T00:51:40.648Z,2.40
2023-07-19T00:56:42.199Z,2.50
2023-07-19T01:16:40.047Z,2.60
2023-07-19T01:21:39.963Z,2.60
2023-07-19T01:26:40.012Z,3.00
2023-07-19T01:36:39.986Z,2.40
2023-07-19T01:41:40.040Z,2.40
2023-07-19T01:46:40.069Z,2.70
2023-07-19T01:51:40.015Z,2.70
2023-07-19T02:01:40.065Z,2.60
2023-07-19T02:06:40.046Z,2.80
2023-07-19T02:11:40.820Z,2.80
2023-07-19T02:16:40.100Z,2.90
2023-07-19T02:21:40.737Z,2.90
2023-07-19T02:31:40.139Z,2.50
2023-07-19T02:36:40.160Z,2.60
2023-07-19T02:46:40.229Z,2.40
2023-07-19T02:56:40.219Z,2.40
2023-07-19T03:01:41.803Z,2.30
2023-07-19T03:06:40.381Z,2.30
2023-07-19T03:11:40.346Z,2.50
2023-07-19T03:21:40.414Z,2.10
2023-07-19T03:56:40.349Z,2.50
2023-07-19T04:01:40.514Z,2.70
2023-07-19T04:06:40.383Z,2.70
2023-07-19T04:11:40.454Z,2.40
2023-07-19T04:16:40.875Z,2.40
2023-07-19T04:21:40.474Z,2.60
2023-07-19T04:26:40.461Z,2.60
2023-07-19T04:31:40.585Z,2.50
2023-07-19T04:51:40.506Z,2.60
2023-07-19T04:56:40.489Z,2.60
2023-07-19T05:01:40.587Z,2.80
2023-07-19T05:06:40.548Z,2.80
2023-07-19T05:11:40.565Z,2.60
2023-07-19T05:16:40.734Z,2.60
2023-07-19T05:21:40.668Z,2.50
2023-07-19T05:26:41.077Z,2.50
2023-07-19T05:41:40.744Z,2.30
2023-07-19T05:46:40.669Z,2.30
2023-07-19T05:56:40.746Z,2.50
2023-07-19T06:01:40.712Z,2.00
2023-07-19T06:06:40.870Z,2.00
2023-07-19T06:11:40.715Z,2.20
2023-07-19T06:31:41.063Z,1.50
2023-07-19T06:36:40.823Z,1.50
2023-07-19T06:46:41.018Z,1.80
2023-07-19T06:51:40.841Z,1.80
2023-07-19T06:56:40.935Z,1.80
2023-07-19T07:06:40.917Z,1.60
2023-07-19T07:16:40.960Z,1.60
2023-07-19T07:21:40.862Z,1.50
2023-07-19T07:26:40.938Z,1.50
2023-07-19T07:31:41.027Z,2.00
2023-07-19T07:36:41.194Z,2.00
2023-07-19T07:51:41.077Z,1.80
2023-07-19T07:56:41.226Z,1.80
2023-07-19T08:01:41.859Z,1.80
2023-07-19T08:06:41.050Z,1.80
2023-07-19T08:11:41.080Z,1.80
2023-07-19T08:16:41.031Z,1.80
2023-07-19T08:21:41.339Z,1.60
2023-07-19T08:26:41.162Z,1.60
2023-07-19T08:31:42.611Z,1.80
2023-07-19T08:36:41.202Z,1.80
2023-07-19T08:41:42.368Z,1.60
2023-07-19T08:46:43.516Z,1.60
2023-07-19T08:51:42.311Z,1.40
2023-07-19T08:56:41.990Z,1.40
2023-07-19T09:01:42.586Z,1.80
2023-07-19T09:11:42.184Z,1.70
2023-07-19T09:16:41.278Z,1.70
2023-07-19T09:21:43.668Z,1.40
2023-07-19T09:26:50.975Z,1.40
2023-07-19T09:36:41.412Z,1.50
2023-07-19T09:46:44.331Z,1.50
2023-07-19T09:51:42.737Z,1.70
2023-07-19T09:56:43.321Z,1.70
2023-07-19T10:01:43.475Z,1.80
2023-07-19T10:06:41.434Z,1.80
2023-07-19T10:11:42.467Z,1.60
2023-07-19T10:16:48.095Z,1.60
2023-07-19T10:22:12.043Z,1.40
2023-07-19T10:26:41.401Z,1.40
2023-07-19T10:31:41.434Z,1.30
2023-07-19T10:36:46.628Z,1.30
2023-07-19T10:41:41.436Z,1.00
2023-07-19T10:46:42.110Z,1.00
2023-07-19T10:51:58.464Z,1.30
2023-07-19T10:56:41.486Z,1.30
2023-07-19T11:01:42.096Z,1.20
2023-07-19T11:07:03.300Z,1.20
2023-07-19T11:11:41.640Z,1.10
2023-07-19T11:21:42.072Z,0.70
2023-07-19T11:26:50.663Z,0.70
2023-07-19T11:31:41.730Z,0.80
2023-07-19T11:36:43.295Z,0.80
2023-07-19T11:41:42.955Z,0.80
2023-07-19T11:46:41.907Z,0.80
2023-07-19T11:51:42.151Z,0.90
2023-07-19T11:56:41.685Z,0.90
2023-07-19T12:01:42.214Z,1.10
2023-07-19T12:11:41.751Z,1.20
2023-07-19T12:16:41.778Z,1.20
2023-07-19T12:21:41.763Z,1.30
2023-07-19T12:26:41.837Z,1.30
2023-07-19T12:31:41.765Z,1.60
2023-07-19T12:36:41.958Z,1.60
2023-07-19T12:46:41.984Z,1.40
2023-07-19T12:51:45.105Z,1.50
2023-07-19T12:56:42.375Z,1.50
2023-07-19T13:01:41.996Z,1.30
2023-07-19T13:06:41.853Z,1.30
2023-07-19T13:11:44.726Z,1.40
2023-07-19T13:16:41.947Z,1.40
2023-07-19T13:21:41.925Z,1.40
2023-07-19T13:26:43.372Z,1.40
2023-07-19T13:41:42.106Z,1.30
2023-07-19T13:46:42.061Z,1.30
2023-07-19T13:51:41.982Z,1.50
2023-07-19T13:56:42.055Z,1.50
2023-07-19T14:01:42.110Z,1.50
2023-07-19T14:06:42.042Z,1.50
2023-07-19T14:11:45.211Z,1.40
2023-07-19T14:16:42.512Z,1.40
2023-07-19T14:21:42.089Z,1.50
2023-07-19T14:26:42.789Z,1.50
2023-07-19T14:31:42.184Z,1.40
2023-07-19T14:41:42.148Z,1.30
2023-07-19T14:46:42.225Z,1.30
2023-07-19T14:51:42.691Z,1.20
2023-07-19T14:56:43.126Z,1.20
2023-07-19T15:01:42.604Z,1.40
2023-07-19T15:06:43.935Z,1.40
2023-07-19T15:11:44.363Z,1.50
2023-07-19T15:21:42.625Z,1.40
2023-07-19T15:26:42.542Z,1.40
2023-07-19T15:31:42.357Z,1.50
2023-07-19T15:36:43.771Z,1.50
2023-07-19T15:41:42.321Z,1.70
2023-07-19T15:46:42.362Z,1.70
2023-07-19T15:51:42.569Z,1.60
2023-07-19T16:01:42.781Z,1.60
2023-07-19T16:06:42.426Z,1.60
2023-07-19T16:11:42.538Z,1.70
2023-07-19T16:16:42.384Z,1.70
2023-07-19T16:21:43.266Z,1.80
2023-07-19T16:26:42.391Z,1.80
2023-07-19T16:31:42.573Z,1.70
2023-07-19T16:36:42.424Z,1.70
2023-07-19T16:41:42.531Z,1.70
2023-07-19T16:46:44.139Z,1.70
2023-07-19T16:51:43.570Z,1.90
2023-07-19T17:01:42.735Z,2.10
2023-07-19T17:06:42.608Z,2.10
2023-07-19T17:16:42.692Z,2.20
2023-07-19T17:21:44.824Z,2.00
2023-07-19T17:26:42.573Z,2.00
2023-07-19T17:31:42.745Z,2.10
2023-07-19T17:36:42.605Z,2.10
2023-07-19T17:41:42.683Z,2.00
2023-07-19T17:46:43.788Z,2.00
2023-07-19T17:56:43.241Z,1.90
2023-07-19T18:01:42.964Z,2.10
2023-07-19T18:06:42.806Z,2.10
2023-07-19T18:11:42.838Z,2.40
2023-07-19T18:26:42.724Z,2.40
2023-07-19T18:31:43.241Z,2.70
2023-07-19T18:36:42.770Z,2.70
2023-07-19T18:41:43.200Z,2.60
2023-07-19T18:46:42.818Z,2.60
2023-07-19T18:51:42.834Z,2.30
2023-07-19T18:56:42.863Z,2.30
2023-07-19T19:01:42.844Z,2.60
2023-07-19T19:06:43.200Z,2.60
2023-07-19T19:16:43.394Z,3.70
2023-07-19T19:26:47.535Z,2.10
2023-07-19T19:31:43.209Z,2.50
2023-07-19T19:36:42.956Z,2.50
2023-07-19T19:41:43.055Z,2.40
2023-07-19T19:46:43.067Z,2.40
2023-07-19T20:01:43.332Z,1.90
2023-07-19T20:06:43.226Z,1.90
2023-07-19T20:21:43.889Z,2.60
2023-07-19T20:36:46.231Z,2.40
2023-07-19T20:46:43.329Z,2.50
2023-07-19T20:56:43.247Z,2.20
2023-07-19T21:01:43.229Z,2.70
2023-07-19T21:11:43.243Z,2.10
2023-07-19T21:16:43.252Z,2.10
2023-07-19T21:21:43.508Z,2.50
2023-07-19T21:31:43.900Z,2.50
2023-07-19T21:46:43.356Z,2.60
2023-07-19T21:56:43.309Z,2.60
2023-07-19T22:01:43.881Z,2.40
2023-07-19T22:11:43.458Z,2.50
2023-07-19T22:21:43.466Z,1.90
2023-07-19T22:36:43.595Z,1.80
2023-07-19T22:41:43.473Z,1.40
2023-07-19T22:51:43.487Z,1.10
2023-07-19T22:56:43.454Z,1.10
2023-07-19T23:01:43.511Z,1.10
2023-07-19T23:06:43.477Z,1.10
2023-07-19T23:11:43.527Z,1.20
2023-07-19T23:21:43.650Z,1.40
2023-07-19T23:26:43.615Z,1.40
2023-07-19T23:31:43.589Z,1.40
2023-07-19T23:41:43.653Z,1.40
2023-07-19T23:46:43.904Z,1.40
2023-07-19T23:51:43.918Z,1.70
